Time;durP1;ratioP1;P1;durP2;ratioP2;P2;SDS_P1;SDS_P2;PMS_P1;PMS_P2;Temp;Humidity;BMP_temperature;BMP_pressure;BME280_temperature;BME280_humidity;BME280_pressure;Samples;Min_cycle;Max_cycle;Signal;HPM_P1;HPM_P2
2021/11/02 00:02:10;;;;;;;54.53;38.43;;;;;;;7.45;100.00;99987.55;1745598;81;20998;-70
2021/11/02 00:04:38;;;;;;;54.83;36.47;;;;;;;7.47;100.00;99981.03;1750469;82;20999;-71
2021/11/02 00:07:05;;;;;;;58.17;37.50;;;;;;;7.51;100.00;99981.06;1763554;81;21468;-70
2021/11/02 00:09:37;;;;;;;56.77;38.87;;;;;;;7.52;100.00;99981.89;1754496;81;21524;-70
2021/11/02 00:12:08;;;;;;;53.87;37.15;;;;;;;7.54;100.00;99978.55;1749589;81;21054;-71
2021/11/02 00:14:35;;;;;;;50.00;34.13;;;;;;;7.55;100.00;99968.98;1729958;82;21019;-70
2021/11/02 00:17:10;;;;;;;53.77;37.70;;;;;;;7.55;100.00;99973.02;1725758;83;21014;-71
2021/11/02 00:19:31;;;;;;;50.30;35.43;;;;;;;7.56;100.00;99970.69;1722693;83;20987;-71
2021/11/02 00:22:06;;;;;;;53.13;35.50;;;;;;;7.57;100.00;99977.74;1727278;82;21050;-71
2021/11/02 00:26:58;;;;;;;51.03;34.67;;;;;;;7.63;100.00;99970.89;1747932;81;21033;-70
2021/11/02 00:29:25;;;;;;;51.63;35.10;;;;;;;7.66;100.00;99977.83;1728348;83;21042;-72
2021/11/02 00:31:53;;;;;;;51.67;33.90;;;;;;;7.69;100.00;99977.02;1726498;82;21034;-70
2021/11/02 00:34:20;;;;;;;49.43;32.83;;;;;;;7.73;100.00;99976.22;1724132;81;22308;-72
2021/11/02 00:36:47;;;;;;;50.60;33.27;;;;;;;7.76;100.00;99970.02;1731684;82;21042;-71
2021/11/02 00:39:14;;;;;;;46.67;32.13;;;;;;;7.81;100.00;99969.57;1729160;82;21503;-70
2021/11/02 00:41:43;;;;;;;47.67;32.13;;;;;;;7.85;100.00;99969.59;1746210;82;21078;-70
2021/11/02 00:44:10;;;;;;;47.83;33.13;;;;;;;7.89;100.00;99966.92;1744863;81;21026;-70
2021/11/02 00:46:37;;;;;;;48.73;32.67;;;;;;;7.93;100.00;99965.63;1736079;81;21761;-72
2021/11/02 00:49:07;;;;;;;51.27;33.83;;;;;;;7.95;100.00;99969.48;1717765;82;21011;-72
2021/11/02 00:51:34;;;;;;;47.33;32.30;;;;;;;7.97;100.00;99963.48;1746126;81;21050;-72
2021/11/02 00:54:01;;;;;;;46.67;32.20;;;;;;;8.00;100.00;99963.14;1751731;82;21046;-71
2021/11/02 00:56:28;;;;;;;50.10;31.80;;;;;;;8.04;100.00;99959.63;1747023;81;21034;-72
2021/11/02 00:58:56;;;;;;;45.13;30.80;;;;;;;8.06;100.00;99953.62;1739405;81;21085;-72
2021/11/02 01:01:23;;;;;;;43.20;29.00;;;;;;;8.09;100.00;99937.12;1742958;81;21010;-71
2021/11/02 01:03:50;;;;;;;46.30;31.33;;;;;;;8.12;100.00;99935.47;1751010;82;21058;-71
2021/11/02 01:06:17;;;;;;;45.67;30.30;;;;;;;8.14;100.00;99935.67;1746854;82;21011;-71
2021/11/02 01:08:44;;;;;;;46.37;30.13;;;;;;;8.18;100.00;99929.47;1758910;81;21511;-70
2021/11/02 01:11:13;;;;;;;46.00;30.23;;;;;;;8.21;100.00;99928.29;1758129;81;21618;-72
2021/11/02 01:13:40;;;;;;;44.20;27.63;;;;;;;8.23;100.00;99927.63;1765586;81;20959;-71
2021/11/02 01:16:07;;;;;;;42.73;28.43;;;;;;;8.27;100.00;99919.56;1762314;81;21098;-71
2021/11/02 01:18:34;;;;;;;47.47;31.10;;;;;;;8.29;100.00;99910.84;1762724;81;21007;-72
2021/11/02 01:21:02;;;;;;;44.17;29.00;;;;;;;8.31;100.00;99908.83;1767064;81;21559;-71
2021/11/02 01:23:32;;;;;;;42.10;27.83;;;;;;;8.33;100.00;99900.91;1752327;81;21075;-71
2021/11/02 01:25:59;;;;;;;43.50;28.90;;;;;;;8.34;100.00;99897.23;1744627;81;21100;-71
2021/11/02 01:28:26;;;;;;;42.03;27.47;;;;;;;8.36;100.00;99890.34;1752544;82;21531;-71
2021/11/02 01:30:54;;;;;;;47.27;30.10;;;;;;;8.38;100.00;99883.44;1751757;82;20996;-71
2021/11/02 01:33:21;;;;;;;53.30;31.97;;;;;;;8.39;100.00;99881.91;1750583;82;21027;-71
2021/11/02 01:35:50;;;;;;;51.43;31.10;;;;;;;8.41;100.00;99878.58;1752029;82;21074;-71
2021/11/02 01:38:21;;;;;;;48.20;31.83;;;;;;;8.42;100.00;99874.89;1745619;81;21054;-72
2021/11/02 01:40:47;;;;;;;85.10;49.57;;;;;;;8.45;100.00;99873.74;1752055;81;21023;-72
2021/11/02 01:43:14;;;;;;;98.83;52.37;;;;;;;8.46;100.00;99870.02;1750605;82;20992;-72
2021/11/02 01:45:42;;;;;;;60.33;38.60;;;;;;;8.47;100.00;99870.38;1751072;82;21056;-71
2021/11/02 01:48:09;;;;;;;53.13;33.67;;;;;;;8.47;100.00;99879.81;1750249;82;21016;-71
2021/11/02 01:50:38;;;;;;;48.67;31.97;;;;;;;8.50;100.00;99875.45;1748699;82;21067;-71
2021/11/02 01:53:05;;;;;;;49.10;31.27;;;;;;;8.51;100.00;99874.43;1745319;81;21028;-71
2021/11/02 01:55:32;;;;;;;48.47;30.80;;;;;;;8.53;100.00;99881.36;1752729;82;21090;-72
2021/11/02 01:58:00;;;;;;;46.77;31.10;;;;;;;8.56;100.00;99877.48;1708083;82;21509;-71
2021/11/02 02:00:28;;;;;;;52.30;32.80;;;;;;;8.59;100.00;99870.44;1746817;81;21518;-73
2021/11/02 02:03:40;;;;;;;46.20;31.60;;;;;;;8.61;100.00;99864.37;1742505;82;21525;-71
2021/11/02 02:06:33;;;;;;;53.93;36.17;;;;;;;8.65;100.00;99856.80;1751919;82;21028;-72
2021/11/02 02:09:04;;;;;;;58.20;35.97;;;;;;;8.67;100.00;99838.09;1786536;80;21124;-71
2021/11/02 02:12:11;;;;;;;58.40;37.70;;;;;;;8.68;100.00;99829.02;1778913;81;20994;-71
2021/11/02 02:15:14;;;;;;;52.97;35.73;;;;;;;8.68;100.00;99823.63;1746491;82;21121;-71
2021/11/02 02:18:07;;;;;;;55.20;39.13;;;;;;;8.70;100.00;99828.86;1747046;81;21119;-72
2021/11/02 02:21:16;;;;;;;54.37;37.70;;;;;;;8.72;100.00;99830.36;1735603;82;21678;-71
2021/11/02 02:24:12;;;;;;;56.03;38.07;;;;;;;8.74;100.00;99822.12;1752018;81;21476;-72
2021/11/02 02:27:11;;;;;;;63.87;45.07;;;;;;;8.78;100.00;99821.28;1752439;80;21026;-71
2021/11/02 02:29:40;;;;;;;84.20;51.60;;;;;;;8.80;100.00;99825.52;1753403;81;21595;-71
2021/11/02 02:32:10;;;;;;;73.07;46.83;;;;;;;8.83;100.00;99827.03;1741490;81;21061;-72
2021/11/02 02:34:38;;;;;;;73.73;51.30;;;;;;;8.85;100.00;99826.35;1755166;80;21034;-73
2021/11/02 02:37:05;;;;;;;65.10;44.90;;;;;;;8.86;100.00;99830.23;1752619;80;21034;-72
2021/11/02 02:39:34;;;;;;;64.47;46.93;;;;;;;8.88;100.00;99826.86;1753635;80;21595;-72
2021/11/02 02:42:03;;;;;;;63.20;46.90;;;;;;;8.91;100.00;99818.45;1751451;81;21038;-71
2021/11/02 02:44:31;;;;;;;65.97;47.37;;;;;;;8.93;100.00;99808.86;1751710;81;21062;-71
2021/11/02 02:46:58;;;;;;;66.87;47.97;;;;;;;8.95;100.00;99808.17;1750551;81;21587;-72
2021/11/02 02:49:27;;;;;;;70.63;51.03;;;;;;;8.96;100.00;99804.48;1754704;80;21006;-71
2021/11/02 02:51:55;;;;;;;65.80;45.27;;;;;;;8.98;100.00;99802.46;1752496;81;21022;-71
2021/11/02 02:54:24;;;;;;;67.80;46.80;;;;;;;9.00;100.00;99796.91;1760397;80;21078;-71
2021/11/02 02:56:52;;;;;;;64.97;43.83;;;;;;;9.01;100.00;99798.09;1753598;81;21170;-71
2021/11/02 02:59:21;;;;;;;59.83;42.07;;;;;;;9.03;100.00;99800.11;1753738;80;21043;-70
2021/11/02 03:01:49;;;;;;;60.93;41.83;;;;;;;9.04;100.00;99793.69;1747790;81;21022;-71
2021/11/02 03:04:20;;;;;;;60.50;42.83;;;;;;;9.04;100.00;99792.34;1751618;82;20986;-71
2021/11/02 03:06:50;;;;;;;58.87;41.97;;;;;;;9.06;100.00;99786.78;1746588;82;21051;-70
2021/11/02 03:09:20;;;;;;;61.53;43.30;;;;;;;9.08;100.00;99787.45;1739606;82;21023;-71
2021/11/02 03:11:49;;;;;;;61.00;41.17;;;;;;;9.11;100.00;99792.52;1738104;81;21535;-71
2021/11/02 03:14:41;;;;;;;61.13;41.00;;;;;;;9.13;100.00;99794.02;1736782;81;21300;-72
2021/11/02 03:17:07;;;;;;;56.37;39.13;;;;;;;9.15;100.00;99803.30;1721818;83;21538;-72
2021/11/02 03:55:37;;;;;;;50.33;33.67;;;;;;;9.31;100.00;99758.81;1681978;85;21053;-70
2021/11/02 03:58:04;;;;;;;52.90;34.65;;;;;;;9.33;100.00;99746.50;1684101;85;21070;-72
2021/11/02 04:00:45;;;;;;;52.07;34.63;;;;;;;9.34;100.00;99752.22;1660674;85;21589;-71
2021/11/02 04:45:16;;;;;;;36.05;23.52;;;;;;;9.43;100.00;99749.84;1585244;90;21045;-71
2021/11/02 05:58:50;;;;;;;30.60;19.35;;;;;;;9.93;100.00;99778.09;1703074;83;21511;-68
2021/11/02 06:27:44;;;;;;;24.43;16.70;;;;;;;10.02;100.00;99747.33;1709403;83;20998;-69
2021/11/02 06:29:00;;;;;;;24.72;16.85;;;;;;;10.03;100.00;99739.57;1713855;82;21092;-69
2021/11/02 06:31:31;;;;;;;35.25;18.12;;;;;;;10.04;100.00;99727.76;1711472;82;21524;-69
2021/11/02 06:34:17;;;;;;;28.85;17.92;;;;;;;10.05;100.00;99728.08;1717361;83;21554;-71
2021/11/02 06:37:07;;;;;;;25.55;15.95;;;;;;;10.04;100.00;99725.89;1709779;83;21525;-69
2021/11/02 06:58:35;;;;;;;25.75;16.12;;;;;;;10.12;100.00;99716.89;1661052;84;21054;-73
2021/11/02 07:23:08;;;;;;;23.95;14.45;;;;;;;10.09;100.00;99687.52;1673845;84;21595;-72
2021/11/02 07:25:36;;;;;;;23.15;14.45;;;;;;;10.10;100.00;99681.64;1705041;83;21026;-71
2021/11/02 08:49:26;;;;;;;25.37;16.97;;;;;;;10.34;100.00;99673.91;1545979;89;21049;-69
2021/11/02 08:51:56;;;;;;;24.57;16.10;;;;;;;10.37;100.00;99670.86;1572402;88;21119;-69
2021/11/02 08:54:24;;;;;;;37.20;28.52;;;;;;;10.39;100.00;99678.27;1589688;88;21112;-71
2021/11/02 08:56:54;;;;;;;23.00;14.90;;;;;;;10.42;100.00;99671.16;1590806;89;21076;-72
2021/11/02 08:59:20;;;;;;;22.27;14.75;;;;;;;10.44;100.00;99674.01;1587790;89;21073;-74
2021/11/02 09:01:48;;;;;;;19.45;12.95;;;;;;;10.47;100.00;99664.72;1590780;89;21049;-72
2021/11/02 09:04:15;;;;;;;22.48;13.48;;;;;;;10.47;100.00;99663.36;1594021;89;21555;-72
2021/11/02 09:06:42;;;;;;;27.10;18.62;;;;;;;10.47;100.00;99660.66;1589936;89;21068;-72
2021/11/02 09:09:10;;;;;;;30.05;21.15;;;;;;;10.50;100.00;99667.07;1570063;87;21093;-76
2021/11/02 09:11:40;;;;;;;22.98;14.78;;;;;;;10.53;100.00;99665.33;1594763;88;21109;-72
2021/11/02 09:14:10;;;;;;;22.48;14.60;;;;;;;10.54;100.00;99659.44;1591259;88;21085;-73
2021/11/02 09:16:39;;;;;;;20.95;12.45;;;;;;;10.55;100.00;99663.32;1585153;89;21150;-72
2021/11/02 09:19:05;;;;;;;20.88;12.88;;;;;;;10.56;100.00;99654.17;1591090;89;21515;-72
2021/11/02 09:21:34;;;;;;;21.48;12.73;;;;;;;10.57;100.00;99649.11;1567443;89;21684;-72
2021/11/02 09:24:01;;;;;;;21.35;12.80;;;;;;;10.60;100.00;99647.37;1595744;89;21073;-71
2021/11/02 09:26:30;;;;;;;22.50;12.20;;;;;;;10.64;100.00;99650.55;1565033;90;21051;-71
2021/11/02 09:31:33;;;;;;;23.52;13.72;;;;;;;10.67;100.00;99648.84;1544743;90;21111;-74
2021/11/02 09:34:00;;;;;;;25.80;13.98;;;;;;;10.69;100.00;99648.66;1572060;90;21545;-73
2021/11/02 09:36:37;;;;;;;21.73;13.15;;;;;;;10.68;100.00;99642.43;1585715;90;21011;-72
2021/11/02 09:39:03;;;;;;;50.05;37.23;;;;;;;10.67;100.00;99643.44;1575992;90;21128;-72
2021/11/02 09:41:51;;;;;;;35.40;21.85;;;;;;;10.70;100.00;99635.48;1572304;90;21636;-75
2021/11/02 09:45:11;;;;;;;27.93;16.75;;;;;;;10.71;100.00;99635.31;1632021;84;21078;-74
2021/11/02 09:48:23;;;;;;;28.02;15.13;;;;;;;10.71;100.00;99628.55;1576550;89;21086;-74
2021/11/02 09:51:46;;;;;;;24.98;15.72;;;;;;;10.75;100.00;99630.38;1564387;89;21061;-73
2021/11/02 09:54:44;;;;;;;24.98;15.20;;;;;;;10.76;100.00;99630.69;1649686;86;21467;-74
2021/11/02 09:57:30;;;;;;;30.77;14.65;;;;;;;10.78;100.00;99628.64;1648309;86;21080;-74
2021/11/02 10:00:32;;;;;;;29.12;17.50;;;;;;;10.75;100.00;99631.21;1654350;85;21087;-74
2021/11/02 10:03:13;;;;;;;;;;;;;;;10.72;100.00;99630.73;1661418;85;21045;-74
2021/11/02 10:05:59;;;;;;;23.62;13.08;;;;;;;10.69;100.00;99624.33;1661028;85;20114;-73
2021/11/02 10:08:48;;;;;;;34.58;15.75;;;;;;;10.67;100.00;99620.45;1652498;85;21071;-74
2021/11/02 10:11:52;;;;;;;19.77;11.48;;;;;;;10.67;100.00;99623.67;1653526;85;20991;-75
2021/11/02 10:14:44;;;;;;;23.40;13.48;;;;;;;10.67;100.00;99619.63;1676159;83;21045;-74
2021/11/02 10:17:36;;;;;;;;;;;;;;;10.68;100.00;99626.69;1681651;84;21115;-73
2021/11/02 10:20:24;;;;;;;23.70;12.68;;;;;;;10.66;100.00;99624.69;1608244;86;20110;-73
2021/11/02 10:23:22;;;;;;;17.82;10.95;;;;;;;10.63;100.00;99618.63;1704085;82;21041;-71
2021/11/02 10:26:15;;;;;;;16.90;10.63;;;;;;;10.62;100.00;99625.07;1682634;84;21045;-73
2021/11/02 10:28:55;;;;;;;;;;;;;;;10.60;100.00;99622.20;1705170;81;20982;-75
2021/11/02 10:31:37;;;;;;;20.02;10.75;;;;;;;10.58;100.00;99615.62;1733530;80;20125;-73
2021/11/02 10:34:12;;;;;;;18.57;10.88;;;;;;;10.58;100.00;99621.03;1721461;82;21006;-70
2021/11/02 10:37:12;;;;;;;17.60;10.32;;;;;;;10.56;100.00;99623.08;1758791;80;21010;-70
2021/11/02 10:40:04;;;;;;;17.60;10.45;;;;;;;10.55;100.00;99620.55;1756471;80;21025;-70
2021/11/02 10:43:10;;;;;;;16.50;10.35;;;;;;;10.54;100.00;99624.30;1720142;82;20969;-70
2021/11/02 10:45:39;;;;;;;16.35;9.78;;;;;;;10.50;100.00;99621.11;1750268;80;21025;-69
2021/11/02 10:48:11;;;;;;;18.82;11.28;;;;;;;10.50;100.00;99617.55;1754301;80;21009;-70
2021/11/02 10:50:49;;;;;;;16.25;9.83;;;;;;;10.49;100.00;99607.77;1750358;80;20973;-70
2021/11/02 10:53:28;;;;;;;17.95;10.18;;;;;;;10.49;100.00;99611.31;1744600;80;21037;-71
2021/11/02 10:56:35;;;;;;;16.17;9.65;;;;;;;10.45;100.00;99614.88;1672143;84;21504;-72
2021/11/02 10:59:05;;;;;;;28.87;19.32;;;;;;;10.43;100.00;99608.83;1716030;83;21092;-69
2021/11/02 11:01:32;;;;;;;21.55;11.70;;;;;;;10.40;100.00;99611.05;1729909;83;21062;-71
2021/11/02 11:04:02;;;;;;;19.82;10.93;;;;;;;10.39;100.00;99610.70;1715762;82;21071;-72
2021/11/02 11:06:28;;;;;;;20.60;11.83;;;;;;;10.40;100.00;99613.23;1711187;84;21078;-71
2021/11/02 11:08:55;;;;;;;19.50;11.85;;;;;;;10.42;100.00;99608.48;1670779;83;21123;-73
2021/11/02 11:11:24;;;;;;;17.20;10.00;;;;;;;10.44;100.00;99594.27;1672248;84;21473;-73
2021/11/02 11:13:56;;;;;;;18.30;10.10;;;;;;;10.45;100.00;99601.89;1683466;83;21062;-73
2021/11/02 11:16:24;;;;;;;17.75;10.43;;;;;;;10.43;100.00;99603.42;1690546;83;21529;-71
2021/11/02 11:18:56;;;;;;;18.12;10.20;;;;;;;10.45;100.00;99604.08;1699641;83;21095;-72
2021/11/02 11:21:25;;;;;;;18.73;10.48;;;;;;;10.43;100.00;99607.47;1682665;84;21125;-73
2021/11/02 11:24:08;;;;;;;19.75;10.45;;;;;;;10.42;100.00;99597.67;1645971;86;21519;-72
2021/11/02 11:26:35;;;;;;;21.12;11.57;;;;;;;10.43;100.00;99602.59;1667397;85;21618;-72
2021/11/02 11:29:05;;;;;;;19.82;11.80;;;;;;;10.44;100.00;99590.73;1692659;84;21496;-70
2021/11/02 11:31:33;;;;;;;23.18;12.88;;;;;;;10.45;100.00;99600.54;1683398;84;21017;-71
2021/11/02 11:34:01;;;;;;;31.90;19.82;;;;;;;10.44;100.00;99586.16;1669327;84;21088;-71
2021/11/02 11:36:29;;;;;;;27.75;17.90;;;;;;;10.44;100.00;99594.80;1691788;84;21587;-73
2021/11/02 11:39:03;;;;;;;28.83;17.77;;;;;;;10.43;100.00;99583.67;1705129;82;21076;-71
2021/11/02 11:41:34;;;;;;;29.15;17.75;;;;;;;10.43;100.00;99586.38;1697383;83;21097;-70
2021/11/02 11:44:04;;;;;;;25.80;17.40;;;;;;;10.42;100.00;99588.21;1696674;84;21554;-71
2021/11/02 11:46:31;;;;;;;24.75;15.48;;;;;;;10.39;100.00;99576.44;1699471;83;21021;-70
2021/11/02 11:48:59;;;;;;;27.27;17.57;;;;;;;10.40;100.00;99579.97;1694895;84;21051;-71
2021/11/02 11:51:29;;;;;;;29.20;18.87;;;;;;;10.39;100.00;99572.38;1677140;84;21048;-72
2021/11/02 11:54:01;;;;;;;30.15;17.50;;;;;;;10.40;100.00;99566.45;1704082;82;21229;-73
2021/11/02 11:56:33;;;;;;;28.87;17.35;;;;;;;10.43;100.00;99566.93;1706684;82;21068;-72
2021/11/02 11:59:01;;;;;;;28.15;18.25;;;;;;;10.47;100.00;99563.88;1671567;84;21048;-73
2021/11/02 12:01:58;;;;;;;27.77;17.17;;;;;;;10.51;100.00;99571.42;1699956;83;21145;-70
2021/11/02 12:04:38;;;;;;;29.60;17.80;;;;;;;10.54;100.00;99568.36;1674648;84;21066;-72
2021/11/02 12:07:16;;;;;;;29.80;17.65;;;;;;;10.58;100.00;99576.42;1666764;84;21101;-70
2021/11/02 12:09:45;;;;;;;27.77;16.15;;;;;;;10.63;100.00;99575.89;1699016;82;21060;-73
2021/11/02 12:12:14;;;;;;;31.57;18.12;;;;;;;10.65;100.00;99573.84;1699597;83;21480;-70
2021/11/02 12:14:50;;;;;;;31.52;17.92;;;;;;;10.67;100.00;99577.19;1706356;83;21495;-70
2021/11/02 12:17:19;;;;;;;29.07;16.17;;;;;;;10.67;100.00;99578.55;1701724;83;21328;-70
2021/11/02 12:20:07;;;;;;;31.60;17.30;;;;;;;10.67;100.00;99579.89;1715412;80;21140;-71
2021/11/02 12:22:51;;;;;;;28.40;16.67;;;;;;;10.68;100.00;99580.73;1738277;81;21252;-71
2021/11/02 12:25:30;;;;;;;29.02;16.80;;;;;;;10.66;100.00;99579.59;1770113;80;21005;-71
2021/11/02 12:27:58;;;;;;;32.40;19.32;;;;;;;10.65;100.00;99581.95;1645626;86;21089;-69
2021/11/02 12:30:26;;;;;;;31.33;18.85;;;;;;;10.66;100.00;99583.64;1668768;85;21009;-71
2021/11/02 12:32:59;;;;;;;58.30;40.88;;;;;;;10.70;100.00;99581.41;1688785;84;21054;-70
2021/11/02 12:35:48;;;;;;;31.95;19.17;;;;;;;10.73;100.00;99576.97;1677952;85;21053;-71
2021/11/02 12:38:15;;;;;;;30.62;18.25;;;;;;;10.77;100.00;99578.30;1675245;84;21583;-72
2021/11/02 12:40:45;;;;;;;30.15;16.30;;;;;;;10.81;100.00;99572.84;1673446;84;21063;-72
2021/11/02 12:43:29;;;;;;;30.20;16.75;;;;;;;10.81;100.00;99568.78;1660382;84;21081;-75
2021/11/02 12:46:01;;;;;;;32.17;17.90;;;;;;;10.82;100.00;99571.83;1667818;85;21040;-73
2021/11/02 12:48:29;;;;;;;32.17;18.85;;;;;;;10.82;100.00;99574.02;1634654;86;21108;-71
2021/11/02 12:50:56;;;;;;;51.00;33.90;;;;;;;10.83;100.00;99573.49;1635397;85;21114;-71
2021/11/02 12:53:23;;;;;;;34.73;18.00;;;;;;;10.82;100.00;99567.77;1616283;86;21073;-69
2021/11/02 12:55:51;;;;;;;33.73;18.25;;;;;;;10.82;100.00;99578.59;1640706;85;21031;-73
2021/11/02 12:58:20;;;;;;;34.67;18.70;;;;;;;10.82;100.00;99575.89;1644810;85;21033;-72
2021/11/02 13:00:58;;;;;;;32.38;19.20;;;;;;;10.85;100.00;99580.91;1642845;85;21017;-73
2021/11/02 13:03:29;;;;;;;35.98;19.92;;;;;;;10.86;100.00;99583.13;1580570;89;21732;-72
2021/11/02 13:06:08;;;;;;;35.85;21.42;;;;;;;10.86;100.00;99577.71;1581907;89;21094;-71
2021/11/02 13:08:44;;;;;;;34.15;19.15;;;;;;;10.87;100.00;99576.66;1581183;90;21057;-73
2021/11/02 13:11:15;;;;;;;37.05;20.52;;;;;;;10.88;100.00;99580.55;1606720;89;21277;-71
2021/11/02 13:14:03;;;;;;;35.50;20.60;;;;;;;10.91;100.00;99582.06;1580293;89;21058;-72
2021/11/02 13:16:52;;;;;;;36.75;21.48;;;;;;;10.91;100.00;99573.42;1596487;89;21140;-71
2021/11/02 13:19:21;;;;;;;36.68;20.75;;;;;;;10.92;100.00;99579.14;1585929;89;21110;-69
2021/11/02 13:21:48;;;;;;;49.58;30.35;;;;;;;10.96;100.00;99582.31;1586381;90;21086;-72
2021/11/02 13:24:20;;;;;;;74.37;49.85;;;;;;;10.99;100.00;99581.43;1579274;89;21492;-71
2021/11/02 13:26:50;;;;;;;46.65;25.65;;;;;;;11.01;100.00;99574.00;1581934;89;21059;-72
2021/11/02 13:29:25;;;;;;;41.45;24.20;;;;;;;11.06;100.00;99576.65;1611956;87;21046;-71
2021/11/02 13:31:54;;;;;;;45.92;22.30;;;;;;;11.07;100.00;99571.58;1588524;88;21022;-72
2021/11/02 13:34:38;;;;;;;39.60;20.43;;;;;;;11.09;100.00;99578.47;1579327;89;21050;-72
2021/11/02 13:37:14;;;;;;;39.65;20.65;;;;;;;11.11;100.00;99576.94;1583862;88;21599;-72
2021/11/02 13:39:57;;;;;;;39.83;19.92;;;;;;;11.11;100.00;99576.41;1617435;87;21640;-71
2021/11/02 13:42:52;;;;;;;36.23;19.98;;;;;;;11.11;100.00;99580.47;1578367;89;21093;-68
2021/11/02 13:45:23;;;;;;;57.73;35.13;;;;;;;11.14;100.00;99581.46;1574848;90;21069;-71
2021/11/02 13:47:51;;;;;;;46.33;20.32;;;;;;;11.16;100.00;99582.11;1573890;90;21590;-71
2021/11/02 13:50:18;;;;;;;48.85;25.75;;;;;;;11.19;100.00;99582.23;1579034;90;21041;-71
2021/11/02 13:52:46;;;;;;;43.70;20.43;;;;;;;11.21;100.00;99581.56;1576555;90;21214;-72
2021/11/02 13:55:13;;;;;;;45.73;20.80;;;;;;;11.23;100.00;99574.09;1575939;88;20990;-71
2021/11/02 13:57:40;;;;;;;52.23;20.32;;;;;;;11.25;100.00;99584.22;1603266;88;21074;-70
2021/11/02 14:00:10;;;;;;;38.42;17.65;;;;;;;11.27;100.00;99579.45;1567878;89;21042;-71
2021/11/02 14:02:40;;;;;;;41.23;18.73;;;;;;;11.29;100.00;99578.75;1549570;92;21088;-70
2021/11/02 14:05:09;;;;;;;35.98;17.60;;;;;;;11.32;100.00;99577.55;1538392;90;21114;-71
2021/11/02 14:07:36;;;;;;;33.45;17.15;;;;;;;11.34;100.00;99572.26;1597191;89;21153;-72
2021/11/02 14:10:09;;;;;;;42.93;18.87;;;;;;;11.36;100.00;99574.78;1577497;90;21053;-73
2021/11/02 14:12:53;;;;;;;32.33;17.57;;;;;;;11.36;100.00;99576.97;1522341;92;21549;-72
2021/11/02 14:15:32;;;;;;;27.80;15.05;;;;;;;11.38;100.00;99573.59;1508533;93;21633;-73
2021/11/02 14:18:10;;;;;;;33.55;16.95;;;;;;;11.39;100.00;99575.77;1484986;95;21110;-75
2021/11/02 14:20:51;;;;;;;39.70;18.98;;;;;;;11.38;100.00;99572.23;1503976;94;21679;-75
2021/11/02 14:23:26;;;;;;;29.98;14.55;;;;;;;11.39;100.00;99575.25;1490817;96;21073;-74
2021/11/02 14:25:53;;;;;;;37.53;19.00;;;;;;;11.37;100.00;99577.30;1529043;92;21055;-73
2021/11/02 14:28:32;;;;;;;36.15;18.77;;;;;;;11.37;100.00;99569.19;1536655;92;21046;-72
2021/11/02 14:30:59;;;;;;;36.25;17.60;;;;;;;11.39;100.00;99575.25;1545101;91;21062;-72
2021/11/02 14:33:44;;;;;;;30.48;15.45;;;;;;;11.39;100.00;99577.95;1561213;91;21098;-73
2021/11/02 14:36:12;;;;;;;27.35;13.15;;;;;;;11.41;100.00;99583.19;1552752;90;21545;-75
2021/11/02 14:38:46;;;;;;;27.10;13.30;;;;;;;11.42;100.00;99586.23;1580783;90;21057;-74
2021/11/02 14:41:34;;;;;;;33.98;15.23;;;;;;;11.44;100.00;99589.59;1586501;89;21105;-73
2021/11/02 14:44:24;;;;;;;35.80;15.85;;;;;;;11.46;100.00;99590.23;1616977;88;21032;-71
2021/11/02 14:46:54;;;;;;;36.55;16.93;;;;;;;11.49;100.00;99594.42;1623501;87;21101;-79
2021/11/02 14:49:32;;;;;;;31.82;15.35;;;;;;;11.49;100.00;99591.71;1607778;88;21116;-78
2021/11/02 14:52:10;;;;;;;29.32;14.15;;;;;;;11.50;100.00;99591.53;1607827;89;21180;-79
2021/11/02 14:54:43;;;;;;;29.52;14.98;;;;;;;11.51;100.00;99591.00;1604595;89;21121;-78
2021/11/02 14:57:26;;;;;;;27.30;13.62;;;;;;;11.52;100.00;99590.82;1586335;88;21052;-79
2021/11/02 15:00:01;;;;;;;23.95;13.85;;;;;;;11.53;100.00;99598.45;1587410;90;21123;-79
2021/11/02 15:02:37;;;;;;;33.88;15.60;;;;;;;11.54;100.00;99605.03;1586230;88;21184;-78
2021/11/02 15:05:07;;;;;;;28.85;15.40;;;;;;;11.56;100.00;99607.53;1588770;88;21593;-78
2021/11/02 15:07:43;;;;;;;32.25;15.28;;;;;;;11.57;100.00;99609.22;1579226;89;21582;-79
2021/11/02 15:10:13;;;;;;;26.90;14.40;;;;;;;11.57;100.00;99610.58;1568434;90;21123;-78
2021/11/02 15:12:43;;;;;;;26.97;13.55;;;;;;;11.56;100.00;99608.88;1571188;89;21495;-77
2021/11/02 15:15:10;;;;;;;28.27;14.23;;;;;;;11.55;100.00;99608.58;1659277;84;21001;-80
2021/11/02 15:17:38;;;;;;;28.17;15.08;;;;;;;11.53;100.00;99605.22;1687647;83;21054;-80
2021/11/02 15:20:06;;;;;;;26.48;14.98;;;;;;;11.53;100.00;99610.64;1738361;82;21049;-78
2021/11/02 15:22:33;;;;;;;25.35;15.32;;;;;;;11.54;100.00;99611.80;1741930;82;21061;-80
2021/11/02 15:25:07;;;;;;;25.35;14.00;;;;;;;11.57;100.00;99615.98;1666050;85;21053;-80
2021/11/02 15:27:37;;;;;;;24.05;14.38;;;;;;;11.58;100.00;99613.63;1739320;82;21046;-79
2021/11/02 15:30:13;;;;;;;22.52;14.55;;;;;;;11.58;100.00;99614.45;1676982;84;21060;-78
2021/11/02 15:32:43;;;;;;;27.05;16.40;;;;;;;11.59;100.00;99616.64;1704113;84;21053;-81
2021/11/02 15:35:13;;;;;;;23.92;13.65;;;;;;;11.59;100.00;99622.88;1694589;85;21058;-79
2021/11/02 15:37:45;;;;;;;21.12;12.58;;;;;;;11.59;100.00;99619.34;1694283;83;21077;-78
2021/11/02 15:40:20;;;;;;;20.12;12.03;;;;;;;11.59;100.00;99627.47;1694727;85;21090;-79
2021/11/02 15:42:51;;;;;;;22.15;12.53;;;;;;;11.59;100.00;99631.01;1629390;87;21078;-78
2021/11/02 15:45:30;;;;;;;20.37;12.68;;;;;;;11.59;100.00;99633.72;1616882;88;21064;-79
2021/11/02 15:47:53;;;;;;;24.87;14.28;;;;;;;11.59;100.00;99634.23;1674171;85;21582;-80
2021/11/02 15:50:25;;;;;;;28.07;17.48;;;;;;;11.58;100.00;99637.47;1684027;84;21084;-79
2021/11/02 15:52:57;;;;;;;27.50;17.17;;;;;;;11.58;100.00;99638.83;1678336;84;21074;-79
2021/11/02 15:55:26;;;;;;;30.35;19.85;;;;;;;11.58;100.00;99636.64;1686886;83;21108;-80
2021/11/02 15:57:58;;;;;;;28.30;18.77;;;;;;;11.59;100.00;99638.30;1689477;84;21077;-78
2021/11/02 16:00:29;;;;;;;30.35;20.32;;;;;;;11.59;100.00;99645.90;1647081;86;21061;-79
2021/11/02 16:02:56;;;;;;;27.95;18.87;;;;;;;11.59;100.00;99645.90;1627541;87;21112;-79
2021/11/02 16:05:28;;;;;;;25.68;16.65;;;;;;;11.59;100.00;99647.25;1649088;87;21102;-80
2021/11/02 16:07:55;;;;;;;23.67;14.98;;;;;;;11.58;100.00;99644.23;1645572;87;21474;-79
2021/11/02 16:10:28;;;;;;;21.70;13.90;;;;;;;11.62;100.00;99649.28;1640108;87;21125;-81
2021/11/02 16:12:56;;;;;;;22.30;13.83;;;;;;;11.62;100.00;99643.87;1670092;84;21030;-79
2021/11/02 16:15:28;;;;;;;22.87;14.23;;;;;;;11.62;100.00;99647.94;1675409;85;21041;-78
2021/11/02 16:18:01;;;;;;;23.50;14.55;;;;;;;11.63;100.00;99655.02;1694355;84;21073;-77
2021/11/02 16:20:31;;;;;;;28.87;17.98;;;;;;;11.63;100.00;99667.20;1620671;87;21120;-78
2021/11/02 16:23:09;;;;;;;23.47;15.35;;;;;;;11.59;100.00;99665.37;1624486;87;21650;-78
2021/11/02 16:25:41;;;;;;;23.98;15.13;;;;;;;11.52;100.00;99671.22;1621928;85;21101;-76
2021/11/02 16:28:16;;;;;;;23.10;14.33;;;;;;;11.47;100.00;99676.34;1618379;87;21026;-78
2021/11/02 16:30:57;;;;;;;22.65;13.15;;;;;;;11.42;100.00;99681.47;1616263;88;21111;-74
2021/11/02 16:33:46;;;;;;;24.00;13.32;;;;;;;11.28;100.00;99687.19;1581407;86;21020;-76
2021/11/02 16:36:31;;;;;;;20.77;12.25;;;;;;;11.17;100.00;99696.11;1537403;93;21058;-76
2021/11/02 16:39:00;;;;;;;19.77;11.97;;;;;;;11.09;100.00;99696.17;1539732;92;21121;-76
2021/11/02 16:41:31;;;;;;;20.57;11.63;;;;;;;11.05;100.00;99702.12;1562545;91;21166;-79
2021/11/02 16:44:07;;;;;;;20.08;10.95;;;;;;;10.93;100.00;99703.08;1510908;95;21057;-79
2021/11/02 16:46:39;;;;;;;21.85;12.35;;;;;;;10.86;100.00;99702.95;1452607;98;21713;-79